KDCA/DCA METAR and TAF weather

Enter ICAO airport designator
Station Type Date Time Source
KDCA METAR 2019/08/22 01:52 UTC NOAA

KDCA 220152Z 04005KT 10SM SCT065 BKN080 BKN250 27/22 A2991 RMK AO2 LTG DSNT SE AND W AND NW SLP127 T02670217


Station Type Date Time Source
KDCA Decoded METAR 2019/08/22 01:52 UTC NOAA

Station name not available
Aug 21, 2019 - 09:52 PM EDT / 2019.08.22 0152 UTC
Wind: from the NE (040 degrees) at 6 MPH (5 KT):0
Visibility: 10 mile(s):0
Sky conditions: mostly cloudy
Weather: Lightning observed
Temperature: 80.1 F (26.7 C)
Dew Point: 71.1 F (21.7 C)
Relative Humidity: 74%
Pressure (altimeter): 29.91 in. Hg (1012 hPa)
ob: KDCA 220152Z 04005KT 10SM SCT065 BKN080 BKN250 27/22 A2991 RMK AO2 LTG DSNT SE AND W AND NW SLP127 T02670217
cycle: 2

Station Type Date Time Source
KDCA TAF 2019/08/22 02:18 UTC NOAA

TAF
AMD KDCA 220216Z 2202/2306 17010KT P6SM VCTS FEW040 SCT060CB
TEMPO 2202/2203 VRB10G18KT 4SM TSRA BKN040CB
FM220300 23004KT P6SM SCT250
FM220900 VRB03KT 5SM BR SCT020
FM221300 27004KT P6SM FEW250
FM221800 21008KT P6SM VCTS BKN050CB
FM222200 24006KT P6SM BKN100

Example: see airport list